Time;durP1;ratioP1;P1;durP2;ratioP2;P2;SDS_P1;SDS_P2;PMS_P1;PMS_P2;Temp;Humidity;BMP_temperature;BMP_pressure;BME280_temperature;BME280_humidity;BME280_pressure;Samples;Min_cycle;Max_cycle;Signal;HPM_P1;HPM_P2
2021/09/09 00:00:05;;;;;;;49.40;27.90;;;;;;;8.85;90.58;100228.45;1690080;84;20864;-70
2021/09/09 00:02:37;;;;;;;46.85;27.07;;;;;;;8.84;90.52;100228.19;1673249;84;21152;-69
2021/09/09 00:05:07;;;;;;;50.03;26.42;;;;;;;8.81;90.58;100226.03;1667848;85;20913;-69
2021/09/09 00:07:40;;;;;;;47.88;26.55;;;;;;;8.79;90.53;100224.95;1662942;85;20913;-69
2021/09/09 00:10:09;;;;;;;55.50;27.35;;;;;;;8.77;90.56;100228.52;1611550;87;21056;-69
2021/09/09 00:12:43;;;;;;;44.33;25.52;;;;;;;8.74;90.61;100224.98;1664023;85;20945;-69
2021/09/09 00:15:16;;;;;;;49.30;25.92;;;;;;;8.73;90.52;100230.20;1646858;86;21504;-69
2021/09/09 00:17:47;;;;;;;48.65;26.30;;;;;;;8.69;90.46;100223.66;1608809;88;20922;-69
2021/09/09 00:20:16;;;;;;;;;;;;;;;8.67;90.55;100220.95;1617278;88;20926;-69
2021/09/09 00:22:50;;;;;;;47.30;25.32;;;;;;;8.65;90.58;100228.66;1595927;88;20105;-71
2021/09/09 00:25:20;;;;;;;46.08;24.35;;;;;;;8.62;90.68;100226.49;1611621;88;21482;-72
2021/09/09 00:27:54;;;;;;;49.73;26.37;;;;;;;8.57;90.65;100225.98;1627071;88;21561;-71
2021/09/09 00:30:24;;;;;;;49.38;27.13;;;;;;;8.55;90.77;100232.30;1624615;87;20956;-69
2021/09/09 00:32:54;;;;;;;48.48;26.07;;;;;;;8.53;90.96;100227.66;1680559;84;20947;-69
2021/09/09 00:35:21;;;;;;;51.15;25.97;;;;;;;8.52;90.98;100224.10;1675514;84;21463;-69
2021/09/09 00:37:51;;;;;;;47.95;26.02;;;;;;;8.49;90.95;100227.41;1681851;84;20971;-70
2021/09/09 00:40:23;;;;;;;46.65;23.67;;;;;;;8.48;91.02;100224.41;1670129;85;21161;-68
2021/09/09 00:42:51;;;;;;;43.40;25.80;;;;;;;8.46;90.98;100224.42;1668128;85;20944;-70
2021/09/09 00:45:23;;;;;;;47.55;27.37;;;;;;;8.45;90.94;100233.73;1686143;84;20919;-71
2021/09/09 00:47:59;;;;;;;45.30;26.40;;;;;;;8.41;91.11;100234.85;1655080;84;20943;-70
2021/09/09 00:50:34;;;;;;;48.08;24.85;;;;;;;8.40;91.33;100237.33;1660442;85;21678;-70
2021/09/09 00:53:10;;;;;;;46.25;25.82;;;;;;;8.38;91.39;100238.16;1662360;84;21028;-71
2021/09/09 00:55:40;;;;;;;45.67;25.88;;;;;;;8.35;91.45;100233.25;1643673;86;21003;-70
2021/09/09 00:58:10;;;;;;;48.52;25.05;;;;;;;8.33;91.53;100228.62;1675256;84;21022;-70
2021/09/09 01:00:41;;;;;;;41.42;24.70;;;;;;;8.30;91.57;100226.42;1693369;84;21046;-69
2021/09/09 01:03:18;;;;;;;45.65;25.60;;;;;;;8.28;91.73;100232.17;1700134;83;20963;-69
2021/09/09 01:05:42;;;;;;;44.05;24.40;;;;;;;8.27;91.81;100231.09;1683282;84;21166;-69
2021/09/09 01:08:15;;;;;;;50.17;25.77;;;;;;;8.26;91.71;100234.38;1682155;84;20956;-69
2021/09/09 01:10:45;;;;;;;50.40;25.65;;;;;;;8.25;91.70;100234.66;1642118;85;20921;-69
2021/09/09 01:13:17;;;;;;;41.55;23.83;;;;;;;8.23;91.75;100238.23;1656975;86;20924;-70
2021/09/09 01:15:44;;;;;;;58.55;25.52;;;;;;;8.20;91.80;100243.71;1658781;86;20873;-69
2021/09/09 01:18:15;;;;;;;56.77;25.70;;;;;;;8.18;91.79;100238.25;1676930;84;21028;-69
2021/09/09 01:20:51;;;;;;;57.73;26.00;;;;;;;8.16;91.86;100230.33;1687966;84;21149;-69
2021/09/09 01:23:11;;;;;;;58.50;25.02;;;;;;;8.14;91.95;100225.70;1665062;84;20916;-69
2021/09/09 01:25:41;;;;;;;49.77;24.32;;;;;;;8.12;91.98;100232.55;1687130;84;20967;-69
2021/09/09 01:28:16;;;;;;;51.98;25.65;;;;;;;8.10;91.96;100233.38;1663782;84;21025;-69
2021/09/09 01:30:51;;;;;;;43.90;23.90;;;;;;;8.08;92.01;100233.70;1657886;85;21025;-69
2021/09/09 01:33:22;;;;;;;58.30;24.77;;;;;;;8.06;92.05;100235.89;1669629;84;21471;-69
2021/09/09 01:35:57;;;;;;;55.40;26.20;;;;;;;8.04;92.01;100238.09;1673100;84;20900;-69
2021/09/09 01:38:27;;;;;;;47.40;24.60;;;;;;;8.03;92.09;100238.38;1655891;84;21439;-69
2021/09/09 01:41:02;;;;;;;52.83;25.05;;;;;;;8.01;92.26;100231.82;1671699;84;20901;-69
2021/09/09 01:43:34;;;;;;;49.35;25.82;;;;;;;7.99;92.22;100226.36;1670776;84;22208;-70
2021/09/09 01:45:59;;;;;;;48.42;24.87;;;;;;;7.95;92.30;100231.58;1687384;84;20991;-69
2021/09/09 01:48:34;;;;;;;49.93;25.70;;;;;;;7.92;92.43;100230.23;1680017;83;21023;-69
2021/09/09 01:51:05;;;;;;;46.28;24.37;;;;;;;7.89;92.77;100228.60;1681895;83;21035;-69
2021/09/09 01:53:38;;;;;;;44.15;24.50;;;;;;;7.89;92.90;100229.42;1672972;84;20911;-69
2021/09/09 01:56:08;;;;;;;49.45;24.75;;;;;;;7.88;92.77;100228.33;1656709;85;21996;-70
2021/09/09 01:58:39;;;;;;;43.65;24.87;;;;;;;7.86;92.85;100229.98;1662155;85;20943;-69
2021/09/09 02:01:10;;;;;;;40.83;23.65;;;;;;;7.84;92.77;100223.98;1656713;84;20972;-75
2021/09/09 02:03:43;;;;;;;48.75;24.52;;;;;;;7.82;92.83;100220.70;1659220;84;20992;-70
2021/09/09 02:06:13;;;;;;;44.35;24.07;;;;;;;7.81;92.79;100222.36;1682242;84;21025;-71
2021/09/09 02:08:43;;;;;;;40.73;22.60;;;;;;;7.78;92.89;100214.17;1672149;84;21153;-72
2021/09/09 02:11:17;;;;;;;45.73;23.67;;;;;;;7.77;92.92;100215.27;1656280;84;21569;-69
2021/09/09 02:13:47;;;;;;;47.65;24.87;;;;;;;7.77;92.86;100221.28;1661290;85;20903;-69
2021/09/09 02:16:22;;;;;;;46.40;25.88;;;;;;;7.73;92.83;100211.45;1682385;84;21031;-70
2021/09/09 02:19:07;;;;;;;43.63;24.60;;;;;;;7.73;92.85;100210.64;1655829;86;20964;-70
2021/09/09 02:21:35;;;;;;;45.67;24.57;;;;;;;7.70;92.88;100212.02;1672355;84;21146;-69
2021/09/09 02:24:05;;;;;;;44.38;24.63;;;;;;;7.69;92.92;100213.11;1674519;84;20879;-69
2021/09/09 02:26:37;;;;;;;44.67;24.98;;;;;;;7.70;92.99;100212.56;1688719;84;21003;-69
2021/09/09 02:29:06;;;;;;;44.98;25.08;;;;;;;7.67;92.92;100208.48;1687705;84;20897;-70
2021/09/09 02:31:36;;;;;;;49.15;25.77;;;;;;;7.66;93.09;100210.13;1663865;85;21056;-71
2021/09/09 02:34:07;;;;;;;45.95;26.48;;;;;;;7.64;93.07;100209.04;1667091;84;21143;-70
2021/09/09 02:36:36;;;;;;;43.10;24.75;;;;;;;7.62;93.20;100212.05;1662459;85;21692;-70
2021/09/09 02:39:14;;;;;;;52.33;25.23;;;;;;;7.62;93.35;100211.23;1666624;85;20878;-70
2021/09/09 02:41:48;;;;;;;43.95;26.45;;;;;;;7.59;93.37;100208.52;1663947;85;21470;-70
2021/09/09 02:44:17;;;;;;;46.48;25.10;;;;;;;7.58;93.41;100212.34;1664643;85;21054;-70
2021/09/09 02:46:47;;;;;;;46.40;24.85;;;;;;;7.56;93.41;100215.08;1678522;85;22139;-70
2021/09/09 02:49:22;;;;;;;53.70;26.10;;;;;;;7.56;93.42;100217.81;1656383;85;20980;-69
2021/09/09 02:51:55;;;;;;;46.18;25.50;;;;;;;7.54;93.41;100217.28;1662392;85;21014;-69
2021/09/09 02:54:23;;;;;;;45.28;24.65;;;;;;;7.52;93.33;100210.72;1658310;85;21502;-69
2021/09/09 02:56:56;;;;;;;47.10;24.95;;;;;;;7.52;93.33;100220.84;1661922;85;20900;-69
2021/09/09 02:59:26;;;;;;;40.40;23.40;;;;;;;7.50;93.26;100218.96;1663599;85;21137;-69
2021/09/09 03:01:57;;;;;;;51.00;26.12;;;;;;;7.49;93.36;100217.33;1660748;85;20904;-68
2021/09/09 03:04:33;;;;;;;54.80;25.15;;;;;;;7.48;93.36;100220.61;1670580;85;21003;-68
2021/09/09 03:07:04;;;;;;;47.75;25.32;;;;;;;7.48;93.46;100218.42;1661291;86;21555;-70
2021/09/09 03:09:32;;;;;;;49.65;25.30;;;;;;;7.47;93.40;100215.42;1653954;85;20987;-70
2021/09/09 03:12:05;;;;;;;65.40;26.60;;;;;;;7.47;93.58;100220.88;1661546;85;20963;-69
2021/09/09 03:14:37;;;;;;;51.55;25.80;;;;;;;7.46;93.61;100220.61;1648229;86;20992;-70
2021/09/09 03:17:12;;;;;;;46.15;25.70;;;;;;;7.41;93.76;100217.34;1645701;85;20912;-69
2021/09/09 03:19:40;;;;;;;45.33;24.30;;;;;;;7.40;94.04;100218.99;1659475;85;21566;-70
2021/09/09 03:22:18;;;;;;;43.87;24.02;;;;;;;7.37;94.23;100219.00;1665607;85;21515;-71
2021/09/09 03:24:51;;;;;;;41.70;24.72;;;;;;;7.37;94.23;100219.00;1662090;85;21548;-71
2021/09/09 03:27:20;;;;;;;46.92;24.52;;;;;;;7.37;94.19;100226.38;1662149;85;21115;-70
2021/09/09 03:29:50;;;;;;;51.88;25.20;;;;;;;7.35;94.13;100225.29;1664650;85;20952;-72
2021/09/09 03:32:21;;;;;;;44.85;24.20;;;;;;;7.34;94.28;100228.30;1658776;85;20971;-70
2021/09/09 03:34:53;;;;;;;46.25;23.45;;;;;;;7.33;94.32;100235.67;1665886;85;21085;-69
2021/09/09 03:37:27;;;;;;;42.40;23.57;;;;;;;7.33;94.40;100228.03;1661909;85;21176;-69
2021/09/09 03:39:59;;;;;;;44.42;23.25;;;;;;;7.34;94.44;100229.66;1641054;85;20888;-69
2021/09/09 03:42:31;;;;;;;46.50;24.65;;;;;;;7.34;94.44;100235.12;1665674;85;21548;-69
2021/09/09 03:45:06;;;;;;;47.23;22.30;;;;;;;7.34;94.67;100229.12;1669265;85;21023;-70
2021/09/09 03:47:38;;;;;;;45.12;24.45;;;;;;;7.36;94.81;100237.03;1658606;85;20985;-70
2021/09/09 03:50:08;;;;;;;43.63;23.90;;;;;;;7.37;95.05;100235.39;1665930;85;21512;-71
2021/09/09 03:52:37;;;;;;;41.65;24.02;;;;;;;7.39;94.99;100235.93;1672096;85;20904;-75
2021/09/09 03:55:06;;;;;;;39.73;23.10;;;;;;;7.43;95.21;100232.09;1657967;85;21294;-72
2021/09/09 03:57:40;;;;;;;39.88;22.60;;;;;;;7.48;95.37;100234.81;1670498;85;20968;-76
2021/09/09 04:00:09;;;;;;;43.28;23.52;;;;;;;7.50;95.52;100233.44;1666671;85;20984;-71
2021/09/09 04:02:38;;;;;;;42.30;23.15;;;;;;;7.56;95.63;100232.84;1682135;83;21836;-70
2021/09/09 04:05:16;;;;;;;47.98;23.45;;;;;;;7.60;95.70;100235.28;1679746;84;21022;-73
2021/09/09 04:07:47;;;;;;;42.50;23.55;;;;;;;7.66;95.92;100238.27;1693586;84;20976;-72
2021/09/09 04:10:19;;;;;;;42.90;22.73;;;;;;;7.72;96.03;100236.33;1678266;84;20943;-74
2021/09/09 04:12:48;;;;;;;42.27;22.55;;;;;;;7.78;96.26;100240.13;1667580;85;20951;-77
2021/09/09 04:15:22;;;;;;;37.58;22.70;;;;;;;7.86;96.45;100236.00;1658491;85;21003;-74
2021/09/09 04:17:55;;;;;;;44.15;22.55;;;;;;;7.93;96.65;100233.23;1684968;84;21832;-74
2021/09/09 04:20:29;;;;;;;44.07;22.67;;;;;;;8.03;96.78;100233.72;1686142;84;21424;-74
2021/09/09 04:23:02;;;;;;;50.85;23.42;;;;;;;8.13;97.07;100237.73;1676505;85;20939;-74
2021/09/09 04:25:33;;;;;;;43.00;22.93;;;;;;;8.24;97.38;100237.13;1685290;84;21014;-73
2021/09/09 04:28:05;;;;;;;40.78;22.62;;;;;;;8.35;97.82;100237.36;1681867;84;22227;-73
2021/09/09 04:30:37;;;;;;;40.48;23.02;;;;;;;8.46;98.08;100232.08;1660495;85;20932;-69
2021/09/09 04:33:08;;;;;;;;;;;;;;;8.56;98.16;100231.19;1675452;84;20956;-68
2021/09/09 04:35:38;;;;;;;38.33;21.82;;;;;;;8.68;98.44;100234.34;1683994;84;20115;-68
2021/09/09 04:38:10;;;;;;;44.18;22.32;;;;;;;8.80;98.62;100226.58;1659030;84;20958;-68
2021/09/09 04:40:42;;;;;;;41.60;23.85;;;;;;;8.93;98.86;100231.94;1666009;84;21765;-69
2021/09/09 04:43:17;;;;;;;47.67;22.75;;;;;;;9.10;99.37;100228.22;1682212;84;20931;-68
2021/09/09 04:45:49;;;;;;;44.58;23.83;;;;;;;9.32;100.00;100222.77;1673979;83;20979;-69
2021/09/09 04:48:17;;;;;;;51.48;24.52;;;;;;;9.57;100.00;100231.52;1659683;85;20978;-69
2021/09/09 04:50:53;;;;;;;47.43;23.57;;;;;;;9.83;100.00;100222.39;1650025;84;21010;-70
2021/09/09 04:53:19;;;;;;;57.35;26.27;;;;;;;10.09;100.00;100226.16;1700668;83;21170;-68
2021/09/09 04:55:52;;;;;;;39.88;20.40;;;;;;;10.34;100.00;100222.27;1714606;83;20919;-68
2021/09/09 04:58:19;;;;;;;38.83;19.15;;;;;;;10.57;100.00;100218.03;1714653;83;21018;-69
2021/09/09 05:00:47;;;;;;;41.08;20.48;;;;;;;10.82;100.00;100220.09;1686310;84;20869;-69
2021/09/09 05:03:21;;;;;;;36.70;19.98;;;;;;;11.05;99.61;100222.41;1713794;83;21015;-69
2021/09/09 05:05:51;;;;;;;41.23;19.90;;;;;;;11.24;98.98;100218.48;1717189;83;21539;-69
2021/09/09 05:08:17;;;;;;;33.88;18.42;;;;;;;11.46;98.27;100216.41;1713565;83;20914;-69
2021/09/09 05:10:50;;;;;;;30.82;17.40;;;;;;;11.66;97.56;100222.03;1692006;83;21003;-69
2021/09/09 05:13:21;;;;;;;33.08;18.60;;;;;;;11.84;96.88;100221.70;1691777;83;20931;-69
2021/09/09 05:15:50;;;;;;;32.35;16.50;;;;;;;12.02;96.17;100221.31;1692690;83;21432;-69
2021/09/09 05:18:21;;;;;;;33.33;17.75;;;;;;;12.19;95.48;100220.89;1680932;83;20873;-69
2021/09/09 05:20:52;;;;;;;29.60;16.05;;;;;;;12.37;94.58;100224.61;1672479;84;20962;-69
2021/09/09 05:23:28;;;;;;;29.15;15.20;;;;;;;12.56;93.73;100228.02;1680942;84;21530;-68
2021/09/09 05:25:56;;;;;;;28.47;14.47;;;;;;;12.72;92.45;100226.23;1675212;84;20884;-68
2021/09/09 05:28:27;;;;;;;29.32;14.78;;;;;;;12.89;91.17;100224.41;1679358;84;20987;-68
2021/09/09 05:31:01;;;;;;;35.23;14.95;;;;;;;13.02;90.58;100213.06;1672846;85;20952;-69
2021/09/09 05:33:34;;;;;;;31.05;14.53;;;;;;;13.16;89.74;100211.62;1646870;85;21163;-68
2021/09/09 05:36:05;;;;;;;26.62;14.33;;;;;;;13.30;88.94;100212.88;1682873;84;20951;-68
2021/09/09 05:38:38;;;;;;;36.03;15.18;;;;;;;13.43;87.14;100206.45;1677957;85;20923;-71
2021/09/09 05:41:08;;;;;;;23.25;13.68;;;;;;;13.55;86.46;100207.48;1686538;84;21010;-68
2021/09/09 05:43:37;;;;;;;28.32;14.43;;;;;;;13.69;85.53;100207.36;1685938;85;21173;-68
2021/09/09 05:46:05;;;;;;;27.85;13.70;;;;;;;13.82;85.24;100203.66;1670100;85;20952;-68
2021/09/09 05:48:34;;;;;;;26.75;14.20;;;;;;;13.93;84.44;100206.91;1684179;84;21062;-68
2021/09/09 05:51:08;;;;;;;27.62;14.23;;;;;;;14.06;84.24;100199.05;1686689;84;20955;-68
2021/09/09 05:53:38;;;;;;;19.05;12.23;;;;;;;14.20;83.56;100205.80;1672227;85;21006;-68
2021/09/09 05:56:13;;;;;;;24.63;12.13;;;;;;;14.35;82.35;100207.28;1657249;85;20976;-68
2021/09/09 05:58:41;;;;;;;24.43;12.50;;;;;;;14.47;81.42;100205.49;1679039;84;20904;-68
2021/09/09 06:01:08;;;;;;;22.00;12.37;;;;;;;14.60;80.56;100205.65;1674818;84;20992;-69
2021/09/09 06:03:44;;;;;;;25.23;11.78;;;;;;;14.72;79.92;100203.85;1679824;84;20972;-68
2021/09/09 06:06:09;;;;;;;28.55;12.60;;;;;;;14.86;78.41;100193.99;1667601;85;20965;-68
2021/09/09 06:08:42;;;;;;;24.23;11.93;;;;;;;14.99;77.78;100192.98;1676448;85;21501;-68
2021/09/09 06:11:14;;;;;;;25.80;12.37;;;;;;;15.11;78.38;100196.42;1673247;85;20924;-68
2021/09/09 06:13:48;;;;;;;31.33;13.78;;;;;;;15.25;77.71;100197.02;1668055;84;21530;-69
2021/09/09 06:16:21;;;;;;;24.90;13.35;;;;;;;15.38;77.63;100191.85;1664165;85;20916;-69
2021/09/09 06:18:52;;;;;;;20.57;11.30;;;;;;;15.53;76.12;100197.41;1667742;85;21567;-69
2021/09/09 06:21:21;;;;;;;22.32;12.15;;;;;;;15.64;75.12;100192.30;1674871;84;21184;-69
2021/09/09 06:23:49;;;;;;;25.17;11.50;;;;;;;15.74;74.97;100195.50;1677929;84;21006;-69
2021/09/09 06:26:29;;;;;;;20.23;12.50;;;;;;;15.87;75.50;100200.56;1663446;84;20947;-69
2021/09/09 06:29:00;;;;;;;30.12;12.20;;;;;;;16.03;75.02;100194.67;1680965;84;21471;-69
2021/09/09 06:31:33;;;;;;;20.55;11.57;;;;;;;16.20;74.06;100199.25;1676543;85;20880;-69
2021/09/09 06:34:06;;;;;;;27.40;12.73;;;;;;;16.34;73.21;100196.22;1684441;84;21198;-68
2021/09/09 06:36:39;;;;;;;17.25;10.72;;;;;;;16.48;73.27;100200.33;1681326;84;21637;-68
2021/09/09 06:39:07;;;;;;;25.27;11.63;;;;;;;16.65;71.64;100201.36;1663272;85;21019;-68
2021/09/09 06:41:33;;;;;;;22.10;11.30;;;;;;;16.78;71.42;100205.77;1683018;84;20992;-68
2021/09/09 06:44:08;;;;;;;21.97;11.53;;;;;;;16.86;69.50;100194.36;1658259;85;20955;-68
2021/09/09 06:49:13;;;;;;;21.02;10.00;;;;;;;17.04;69.46;100208.28;1650565;85;20916;-68
2021/09/09 06:51:45;;;;;;;21.33;11.25;;;;;;;17.18;68.48;100205.20;1676967;85;20979;-68
2021/09/09 06:54:16;;;;;;;20.77;10.88;;;;;;;17.29;67.33;100202.22;1680710;84;20963;-68
2021/09/09 06:57:04;;;;;;;21.42;11.33;;;;;;;17.42;68.09;100204.63;1660905;85;20944;-68
2021/09/09 06:59:17;;;;;;;18.77;10.28;;;;;;;17.56;66.39;100205.69;1662106;85;21187;-68
2021/09/09 07:01:46;;;;;;;18.87;11.10;;;;;;;17.68;67.56;100206.30;1669045;85;21702;-68
2021/09/09 07:04:17;;;;;;;20.23;10.10;;;;;;;17.86;67.08;100206.87;1668475;84;21475;-69
2021/09/09 07:06:48;;;;;;;21.12;9.78;;;;;;;18.03;68.00;100212.16;1659684;85;20932;-69
2021/09/09 07:09:15;;;;;;;;;;;;;;;18.22;65.78;100215.71;1682389;84;21530;-68
2021/09/09 07:11:45;;;;;;;20.82;9.63;;;;;;;18.37;63.77;100216.37;1664098;85;20103;-68
2021/09/09 07:14:20;;;;;;;23.47;9.45;;;;;;;18.48;65.17;100219.67;1664826;85;20954;-69
2021/09/09 07:16:48;;;;;;;15.60;8.45;;;;;;;18.65;64.68;100218.59;1673946;84;20963;-68
2021/09/09 07:19:17;;;;;;;17.37;8.45;;;;;;;18.85;62.70;100222.92;1675030;84;20979;-69
2021/09/09 07:21:49;;;;;;;15.78;8.15;;;;;;;18.99;60.90;100213.00;1677669;85;21502;-69
2021/09/09 07:24:21;;;;;;;29.18;8.80;;;;;;;19.20;61.04;100224.45;1641417;86;21465;-69
2021/09/09 07:26:48;;;;;;;20.88;7.87;;;;;;;19.62;61.24;100218.63;1647764;85;21482;-69
2021/09/09 07:29:16;;;;;;;19.52;7.53;;;;;;;20.22;58.62;100220.59;1681406;84;20948;-70
2021/09/09 07:31:47;;;;;;;10.78;6.47;;;;;;;20.76;58.07;100219.20;1653525;85;20963;-69
2021/09/09 07:34:15;;;;;;;12.68;7.12;;;;;;;21.34;55.39;100223.89;1677223;84;21479;-69
2021/09/09 07:36:52;;;;;;;16.00;6.70;;;;;;;21.86;54.72;100220.95;1677242;84;22156;-70
2021/09/09 07:39:19;;;;;;;15.90;7.60;;;;;;;22.30;53.83;100220.63;1677390;84;21019;-70
2021/09/09 07:41:46;;;;;;;14.00;6.75;;;;;;;22.80;52.70;100220.47;1686209;84;21504;-69
2021/09/09 07:44:16;;;;;;;12.63;7.10;;;;;;;23.23;50.15;100216.92;1685448;84;21579;-69
2021/09/09 07:46:49;;;;;;;16.15;6.97;;;;;;;23.53;48.01;100223.02;1686125;84;21188;-71
2021/09/09 07:49:22;;;;;;;14.80;7.12;;;;;;;23.66;48.21;100218.76;1672701;84;20992;-71
2021/09/09 07:51:53;;;;;;;8.05;5.78;;;;;;;23.78;46.41;100214.82;1648232;85;21104;-72
2021/09/09 07:54:26;;;;;;;9.78;6.05;;;;;;;23.94;47.49;100216.15;1684300;84;20944;-71
2021/09/09 07:56:59;;;;;;;11.70;6.20;;;;;;;24.20;46.00;100222.13;1690067;84;21006;-69
2021/09/09 07:59:27;;;;;;;22.60;6.35;;;;;;;24.31;45.74;100219.39;1686904;84;20873;-70
2021/09/09 08:01:55;;;;;;;12.25;6.33;;;;;;;24.47;45.28;100219.08;1659393;84;21146;-81
2021/09/09 08:04:28;;;;;;;10.58;6.17;;;;;;;24.63;44.83;100217.55;1667581;85;21046;-70
2021/09/09 08:06:58;;;;;;;12.95;5.75;;;;;;;24.78;44.30;100211.40;1674396;84;21510;-68
2021/09/09 08:09:29;;;;;;;11.83;5.53;;;;;;;25.00;44.62;100213.08;1689587;83;21014;-69
2021/09/09 08:11:57;;;;;;;7.40;4.40;;;;;;;25.24;43.76;100207.91;1662346;84;20924;-71
2021/09/09 08:14:29;;;;;;;15.72;5.47;;;;;;;25.45;41.52;100212.73;1677155;85;21527;-71
2021/09/09 08:16:58;;;;;;;10.55;5.30;;;;;;;25.53;42.96;100222.17;1683841;84;20927;-71
2021/09/09 08:19:33;;;;;;;10.05;4.92;;;;;;;25.74;40.87;100218.59;1678572;84;20978;-70
2021/09/09 08:22:01;;;;;;;9.08;5.05;;;;;;;25.85;40.32;100208.15;1681272;83;20974;-71
2021/09/09 08:24:30;;;;;;;7.67;5.25;;;;;;;25.87;39.63;100213.37;1676796;84;20971;-71
2021/09/09 08:27:03;;;;;;;9.00;4.95;;;;;;;25.86;40.74;100211.16;1668533;84;21537;-72
2021/09/09 08:29:39;;;;;;;8.65;5.03;;;;;;;25.93;39.39;100209.75;1648247;85;20953;-71
2021/09/09 08:32:12;;;;;;;9.93;5.40;;;;;;;26.01;40.63;100214.73;1669091;85;21158;-71
2021/09/09 08:34:41;;;;;;;10.93;5.28;;;;;;;26.29;40.54;100212.47;1675117;84;21140;-71
2021/09/09 08:37:09;;;;;;;8.20;4.92;;;;;;;26.44;38.17;100207.64;1673587;85;21764;-72
2021/09/09 08:39:40;;;;;;;14.90;4.97;;;;;;;26.47;39.87;100208.23;1676987;84;21584;-69
2021/09/09 08:42:16;;;;;;;7.72;4.78;;;;;;;26.72;39.44;100206.09;1686266;84;21581;-71
2021/09/09 08:44:48;;;;;;;12.35;4.97;;;;;;;26.98;38.25;100199.76;1666598;84;21150;-71
2021/09/09 08:47:18;;;;;;;9.93;4.95;;;;;;;27.24;37.30;100204.80;1656135;85;21011;-70
2021/09/09 08:49:48;;;;;;;7.65;4.80;;;;;;;27.29;37.03;100197.31;1646655;85;21016;-71
2021/09/09 08:52:16;;;;;;;7.78;5.05;;;;;;;27.42;34.65;100199.84;1673157;84;21510;-71
2021/09/09 08:54:50;;;;;;;11.03;4.65;;;;;;;27.40;35.24;100201.47;1682641;84;21015;-71
2021/09/09 08:57:27;;;;;;;6.97;4.83;;;;;;;27.29;35.92;100201.55;1684854;84;21059;-69
2021/09/09 08:59:56;;;;;;;7.55;4.70;;;;;;;27.36;36.52;100197.27;1671567;85;21027;-71
2021/09/09 09:02:28;;;;;;;9.95;5.17;;;;;;;27.46;36.12;100196.39;1679828;84;21095;-69
2021/09/09 09:05:08;;;;;;;8.58;4.35;;;;;;;27.58;36.33;100195.09;1666488;85;21082;-69
2021/09/09 09:07:39;;;;;;;8.93;4.90;;;;;;;27.74;34.72;100186.09;1623276;86;21609;-70
2021/09/09 09:10:10;;;;;;;16.60;4.53;;;;;;;27.82;36.18;100186.22;1683564;84;21604;-71
2021/09/09 09:12:52;;;;;;;11.85;4.92;;;;;;;28.02;35.65;100185.81;1668395;84;21013;-72
2021/09/09 09:15:25;;;;;;;8.08;4.58;;;;;;;28.15;35.62;100183.27;1674656;84;21459;-70
2021/09/09 09:18:07;;;;;;;7.25;4.83;;;;;;;28.32;34.45;100176.63;1660851;85;21119;-69
2021/09/09 09:20:48;;;;;;;7.87;4.70;;;;;;;28.36;34.42;100180.20;1622230;87;20917;-69
2021/09/09 09:23:25;;;;;;;13.48;4.92;;;;;;;28.43;33.38;100176.50;1654676;84;20928;-71
2021/09/09 09:26:01;;;;;;;9.60;5.58;;;;;;;28.36;33.21;100168.11;1665050;85;21628;-71
2021/09/09 09:28:53;;;;;;;13.62;4.90;;;;;;;28.21;31.54;100166.06;1619953;87;21032;-70
2021/09/09 09:31:27;;;;;;;9.20;4.95;;;;;;;28.04;34.07;100163.63;1596877;88;21769;-71
2021/09/09 09:34:01;;;;;;;10.78;4.55;;;;;;;28.11;33.44;100162.14;1622114;87;20917;-70
2021/09/09 09:36:37;;;;;;;6.60;4.83;;;;;;;28.17;32.36;100158.25;1683629;84;21664;-70
2021/09/09 09:39:17;;;;;;;8.75;5.62;;;;;;;28.17;33.21;100164.69;1663151;85;21015;-69
2021/09/09 09:42:00;;;;;;;9.43;5.15;;;;;;;28.19;33.14;100162.25;1672875;84;21605;-71
2021/09/09 09:44:41;;;;;;;9.23;5.45;;;;;;;28.12;33.67;100155.88;1654015;86;21154;-70
2021/09/09 09:47:21;;;;;;;7.12;4.97;;;;;;;28.17;32.80;100155.42;1654382;85;20974;-71
2021/09/09 09:49:59;;;;;;;12.35;5.62;;;;;;;28.17;33.16;100154.81;1650671;86;20910;-70
2021/09/09 09:52:30;;;;;;;9.18;4.85;;;;;;;28.20;32.49;100147.53;1648494;86;20976;-70
2021/09/09 09:55:00;;;;;;;10.90;5.65;;;;;;;28.05;32.51;100153.14;1653016;85;21483;-70
2021/09/09 09:57:34;;;;;;;11.08;5.58;;;;;;;27.95;32.12;100150.01;1648106;85;21149;-71
2021/09/09 10:00:03;;;;;;;8.95;5.17;;;;;;;27.87;32.57;100146.27;1637774;86;20951;-71
2021/09/09 10:02:33;;;;;;;8.63;4.67;;;;;;;27.74;33.29;100150.22;1650908;86;21000;-70
2021/09/09 10:05:03;;;;;;;6.05;4.50;;;;;;;27.63;33.65;100147.34;1633191;86;20959;-70
2021/09/09 10:07:31;;;;;;;10.00;4.95;;;;;;;27.71;33.34;100150.28;1644308;85;20988;-77
2021/09/09 10:10:00;;;;;;;8.53;5.15;;;;;;;27.93;32.33;100143.19;1632676;87;21027;-71
2021/09/09 10:12:30;;;;;;;14.10;5.35;;;;;;;28.09;33.67;100139.18;1678211;84;20934;-71
2021/09/09 10:15:01;;;;;;;7.53;5.15;;;;;;;28.41;33.99;100139.41;1652508;86;21459;-71
2021/09/09 10:17:30;;;;;;;8.23;5.15;;;;;;;28.81;34.05;100130.61;1636262;86;21039;-72
2021/09/09 10:20:33;;;;;;;12.68;6.03;;;;;;;29.20;33.55;100131.44;1621720;87;21007;-71
2021/09/09 10:23:07;;;;;;;13.03;6.30;;;;;;;29.41;30.80;100124.05;1623109;87;20999;-71
2021/09/09 10:25:54;;;;;;;13.62;5.47;;;;;;;29.13;30.08;100127.30;1653417;85;21018;-71
2021/09/09 10:28:48;;;;;;;10.18;5.72;;;;;;;28.97;30.37;100129.97;1656180;85;20944;-71
2021/09/09 10:31:19;;;;;;;6.87;5.08;;;;;;;28.73;30.90;100125.67;1656802;85;20983;-71
2021/09/09 10:33:51;;;;;;;8.88;5.60;;;;;;;28.66;32.46;100120.73;1654968;85;20999;-71
2021/09/09 10:36:42;;;;;;;9.05;5.72;;;;;;;28.82;31.71;100118.91;1610021;88;21925;-71
2021/09/09 10:39:23;;;;;;;11.50;5.40;;;;;;;28.88;30.52;100115.00;1654949;85;21915;-72
2021/09/09 10:41:51;;;;;;;9.05;5.75;;;;;;;28.56;30.81;100120.45;1651778;84;21071;-71
2021/09/09 10:44:28;;;;;;;7.25;5.25;;;;;;;28.37;30.98;100111.84;1633359;85;20932;-71
2021/09/09 10:47:00;;;;;;;8.98;6.17;;;;;;;28.46;30.83;100116.36;1653621;86;21492;-71
2021/09/09 10:49:37;;;;;;;8.23;5.50;;;;;;;28.55;30.97;100108.16;1630181;85;22196;-72
2021/09/09 10:52:14;;;;;;;9.53;5.28;;;;;;;28.64;30.56;100101.38;1661131;84;21011;-71
2021/09/09 10:55:11;;;;;;;10.20;5.60;;;;;;;28.74;31.25;100108.91;1640796;85;21055;-71
2021/09/09 10:57:43;;;;;;;8.90;5.47;;;;;;;28.86;30.59;100102.70;1666482;85;21051;-72
2021/09/09 11:00:16;;;;;;;9.18;5.95;;;;;;;28.75;30.11;100099.82;1685608;84;21023;-73
2021/09/09 11:02:44;;;;;;;7.03;4.87;;;;;;;28.65;30.39;100096.53;1675511;84;21147;-71
2021/09/09 11:05:17;;;;;;;7.58;5.25;;;;;;;28.73;30.51;100100.86;1685756;84;21018;-71
2021/09/09 11:07:52;;;;;;;11.08;5.12;;;;;;;28.71;30.10;100092.01;1651850;85;20968;-71
2021/09/09 11:10:22;;;;;;;7.80;4.80;;;;;;;28.88;30.27;100096.62;1685438;84;26412;-71
2021/09/09 11:12:54;;;;;;;9.55;5.45;;;;;;;28.91;30.12;100090.89;1682341;84;20972;-71
2021/09/09 11:15:28;;;;;;;12.60;5.42;;;;;;;28.81;29.38;100091.05;1656999;84;20959;-71
2021/09/09 11:18:00;;;;;;;9.98;5.37;;;;;;;28.74;30.66;100091.95;1680663;84;20967;-71
2021/09/09 11:20:35;;;;;;;8.58;5.40;;;;;;;28.85;30.59;100085.56;1675331;84;21561;-71
2021/09/09 11:23:11;;;;;;;10.58;5.25;;;;;;;28.82;30.50;100082.80;1669974;85;21043;-72
2021/09/09 11:25:41;;;;;;;7.35;4.90;;;;;;;28.86;30.46;100077.28;1681216;84;21478;-71
2021/09/09 11:28:15;;;;;;;9.68;5.25;;;;;;;28.97;29.54;100074.86;1682636;84;21130;-71
2021/09/09 11:30:45;;;;;;;13.58;5.40;;;;;;;29.00;30.85;100064.92;1662769;84;20974;-71
2021/09/09 11:33:15;;;;;;;7.85;5.05;;;;;;;29.22;30.76;100061.13;1687621;84;21546;-72
2021/09/09 11:36:01;;;;;;;6.47;4.78;;;;;;;29.30;29.24;100065.42;1674787;84;21047;-71
2021/09/09 11:38:32;;;;;;;7.95;4.62;;;;;;;29.24;29.65;100060.08;1689729;84;20915;-72
2021/09/09 11:41:10;;;;;;;8.33;4.67;;;;;;;29.28;29.30;100057.98;1658038;85;21571;-72